Time;durP1;ratioP1;P1;durP2;ratioP2;P2;SDS_P1;SDS_P2;PMS_P1;PMS_P2;Temp;Humidity;BMP_temperature;BMP_pressure;BME280_temperature;BME280_humidity;BME280_pressure;Samples;Min_cycle;Max_cycle;Signal;HPM_P1;HPM_P2
2021/12/17 00:00:40;;;;;;;65.07;18.33;;;8.20;99.90;;;;;;4990587;28;20046;-81
2021/12/17 00:03:12;;;;;;;63.58;19.25;;;8.10;99.90;;;;;;4990654;28;20121;-81
2021/12/17 00:05:54;;;;;;;57.80;18.05;;;8.10;99.90;;;;;;4959018;28;20038;-80
2021/12/17 00:08:22;;;;;;;64.57;19.33;;;8.10;99.90;;;;;;4990472;28;20119;-81
2021/12/17 00:10:50;;;;;;;59.28;18.00;;;8.40;99.90;;;;;;4991210;28;20410;-81
2021/12/17 00:13:16;;;;;;;73.07;20.35;;;8.00;99.90;;;;;;4991057;28;20487;-80
2021/12/17 00:15:44;;;;;;;58.17;16.63;;;8.60;99.90;;;;;;4973486;28;20057;-81
2021/12/17 00:18:17;;;;;;;63.03;18.85;;;8.20;99.90;;;;;;4974068;28;20089;-81
2021/12/17 00:40:20;;;;;;;46.88;14.00;;;8.00;99.90;;;;;;4974267;28;20050;-80
2021/12/17 00:48:36;;;;;;;64.78;17.45;;;8.40;99.90;;;;;;4973296;28;20082;-80
2021/12/17 00:51:19;;;;;;;59.67;16.25;;;7.90;99.90;;;;;;4972410;28;20053;-80
2021/12/17 00:53:36;;;;;;;56.55;16.88;;;8.30;99.90;;;;;;4973389;28;20101;-81
2021/12/17 00:56:02;;;;;;;53.30;15.75;;;8.00;99.90;;;;;;4989752;28;20133;-81
2021/12/17 00:58:27;;;;;;;45.97;13.93;;;7.90;99.90;;;;;;4971993;28;20111;-80
2021/12/17 01:00:53;;;;;;;50.10;14.35;;;8.60;99.90;;;;;;4973323;28;20058;-81
2021/12/17 01:03:19;;;;;;;48.10;12.85;;;7.90;99.90;;;;;;4971654;28;20088;-80
2021/12/17 01:05:45;;;;;;;36.85;10.90;;;8.00;99.90;;;;;;4973167;28;20050;-80
2021/12/17 01:08:10;;;;;;;36.03;11.75;;;8.40;99.90;;;;;;4973725;28;20383;-80
2021/12/17 01:10:42;;;;;;;46.28;11.25;;;8.00;99.90;;;;;;4957292;28;20149;-80
2021/12/17 01:13:08;;;;;;;36.72;10.90;;;8.40;99.90;;;;;;4973164;28;20096;-80
2021/12/17 01:15:36;;;;;;;41.17;11.13;;;8.40;99.90;;;;;;4957050;28;20406;-81
2021/12/17 01:18:05;;;;;;;35.67;10.68;;;8.50;99.90;;;;;;4972184;28;20855;-81
2021/12/17 01:23:18;;;;;;;31.58;9.57;;;8.50;99.90;;;;;;4973775;28;20503;-81
2021/12/17 01:36:30;;;;;;;19.58;6.15;;;7.50;99.90;;;;;;4972726;28;20054;-80
2021/12/17 01:41:51;;;;;;;19.92;6.93;;;8.10;99.90;;;;;;4973430;28;20509;-80
2021/12/17 01:44:18;;;;;;;18.52;5.93;;;7.70;99.90;;;;;;4973016;28;20097;-81
2021/12/17 01:46:46;;;;;;;15.60;5.60;;;7.50;99.90;;;;;;4971918;28;20050;-81
2021/12/17 01:49:27;;;;;;;25.40;7.10;;;7.60;99.90;;;;;;4989059;28;20057;-81
2021/12/17 02:00:04;;;;;;;18.88;6.65;;;7.60;99.90;;;;;;4973106;28;20058;-81
2021/12/17 02:02:37;;;;;;;16.05;5.78;;;7.60;99.90;;;;;;4971745;28;20061;-81
2021/12/17 02:05:03;;;;;;;19.25;6.45;;;7.70;99.90;;;;;;4956734;28;20034;-81
2021/12/17 02:07:29;;;;;;;21.30;6.32;;;7.60;99.90;;;;;;4971875;28;20133;-81
2021/12/17 02:29:11;;;;;;;25.92;6.45;;;7.60;99.90;;;;;;4971426;28;20057;-82
2021/12/17 02:31:37;;;;;;;24.80;7.32;;;8.00;99.90;;;;;;4988298;28;20066;-82
2021/12/17 02:34:21;;;;;;;19.30;5.97;;;7.40;99.90;;;;;;4955700;28;20046;-82
2021/12/17 02:36:49;;;;;;;17.20;6.03;;;7.70;99.90;;;;;;4971495;28;20650;-82
2021/12/17 02:39:47;;;;;;;35.47;6.45;;;7.30;99.90;;;;;;4987779;28;20046;-82
2021/12/17 02:47:31;;;;;;;25.95;3.92;;;7.00;99.90;;;;;;4970771;28;20043;-82
2021/12/17 02:49:56;;;;;;;13.07;4.95;;;7.20;99.90;;;;;;4971948;28;20038;-82
2021/12/17 02:52:28;;;;;;;11.48;4.78;;;6.90;99.90;;;;;;4987645;28;20549;-82
2021/12/17 02:54:57;;;;;;;15.93;5.45;;;7.30;99.90;;;;;;4971892;28;20114;-82
2021/12/17 02:57:24;;;;;;;15.25;6.47;;;7.20;99.90;;;;;;4986429;28;20046;-81
2021/12/17 02:59:50;;;;;;;15.60;6.85;;;7.30;99.90;;;;;;4971626;28;20080;-81
2021/12/17 03:02:18;;;;;;;14.95;6.72;;;6.90;99.90;;;;;;4970187;28;20189;-81
2021/12/17 03:04:44;;;;;;;17.20;7.07;;;7.00;99.90;;;;;;4971053;28;20046;-82
2021/12/17 03:07:12;;;;;;;14.45;6.45;;;7.10;99.90;;;;;;4987357;28;20052;-82
2021/12/17 03:10:02;;;;;;;13.68;6.80;;;7.80;99.90;;;;;;4972192;28;20397;-81
2021/12/17 03:12:36;;;;;;;18.52;8.43;;;7.20;99.90;;;;;;4970510;28;20051;-81
2021/12/17 03:15:13;;;;;;;15.55;7.25;;;7.80;99.90;;;;;;4988119;28;20105;-82
2021/12/17 03:25:57;;;;;;;14.13;6.03;;;7.90;99.90;;;;;;4970243;28;20413;-81
2021/12/17 03:28:23;;;;;;;12.10;5.72;;;7.40;99.90;;;;;;4970982;28;20054;-82
2021/12/17 03:30:49;;;;;;;13.52;5.65;;;7.40;99.90;;;;;;4971430;28;20038;-81
2021/12/17 03:33:15;;;;;;;14.73;6.70;;;8.10;99.90;;;;;;4985572;28;20053;-81
2021/12/17 03:35:40;;;;;;;16.55;6.43;;;7.60;99.90;;;;;;4971203;28;20077;-81
2021/12/17 03:38:06;;;;;;;18.65;6.88;;;7.40;99.90;;;;;;4971207;28;20482;-81
2021/12/17 03:40:33;;;;;;;14.85;6.57;;;7.40;99.90;;;;;;4969807;28;20054;-82
2021/12/17 03:43:03;;;;;;;13.80;6.15;;;7.40;99.90;;;;;;4987485;28;20101;-81
2021/12/17 03:45:29;;;;;;;15.52;6.68;;;8.10;99.90;;;;;;4986184;28;20096;-82
2021/12/17 03:47:55;;;;;;;13.98;6.70;;;7.90;99.90;;;;;;4970530;28;20046;-82
2021/12/17 03:50:22;;;;;;;17.33;7.07;;;7.50;99.90;;;;;;4987310;28;20054;-82
2021/12/17 03:52:49;;;;;;;15.23;6.35;;;7.90;99.90;;;;;;4970191;28;20046;-82
2021/12/17 03:55:14;;;;;;;13.52;6.88;;;7.50;99.90;;;;;;4971110;28;20086;-82
2021/12/17 03:57:40;;;;;;;17.98;7.65;;;8.50;99.90;;;;;;4970340;28;20038;-82
2021/12/17 04:00:09;;;;;;;15.95;7.32;;;8.00;99.90;;;;;;4970597;28;20481;-82
2021/12/17 04:02:35;;;;;;;17.73;6.82;;;7.50;99.90;;;;;;4969240;28;20042;-82
2021/12/17 04:05:02;;;;;;;20.40;7.40;;;7.60;99.90;;;;;;4971283;28;20053;-82
2021/12/17 04:07:28;;;;;;;16.83;7.90;;;7.50;99.90;;;;;;4969691;28;20039;-82
2021/12/17 04:09:53;;;;;;;17.92;7.38;;;7.60;99.90;;;;;;4955244;28;20050;-82
2021/12/17 04:12:24;;;;;;;21.20;6.85;;;7.70;99.90;;;;;;4970737;28;20572;-82
2021/12/17 04:14:51;;;;;;;17.38;7.10;;;7.60;99.90;;;;;;4986160;28;20046;-82
2021/12/17 04:17:23;;;;;;;12.20;6.70;;;7.60;99.90;;;;;;4954000;28;20128;-82
2021/12/17 04:19:49;;;;;;;14.02;6.43;;;8.30;99.90;;;;;;4954943;28;20057;-82
2021/12/17 04:22:14;;;;;;;16.55;6.60;;;8.00;99.90;;;;;;4969852;28;20042;-82
2021/12/17 04:24:40;;;;;;;15.80;7.07;;;7.80;99.90;;;;;;4986894;28;20177;-82
2021/12/17 04:27:07;;;;;;;18.02;7.20;;;7.60;99.90;;;;;;4987609;28;20410;-82
2021/12/17 04:29:39;;;;;;;13.88;6.40;;;7.70;99.90;;;;;;4954062;28;20052;-82
2021/12/17 04:32:05;;;;;;;19.35;6.75;;;7.60;99.90;;;;;;4970369;28;20133;-82
2021/12/17 04:34:31;;;;;;;15.27;6.45;;;7.70;99.90;;;;;;4969916;28;20202;-82
2021/12/17 04:36:57;;;;;;;12.35;5.88;;;8.00;99.90;;;;;;4971203;28;20053;-82
2021/12/17 04:39:24;;;;;;;14.50;6.50;;;8.30;99.90;;;;;;4974456;28;20495;-82
2021/12/17 04:41:55;;;;;;;15.52;6.53;;;7.70;99.90;;;;;;4973033;28;20042;-82
2021/12/17 04:44:25;;;;;;;20.10;7.25;;;8.40;99.90;;;;;;4974503;28;20050;-82
2021/12/17 04:57:16;;;;;;;16.25;5.90;;;8.40;99.90;;;;;;4973230;28;20093;-82
2021/12/17 04:57:51;;;;;;;21.48;7.90;;;7.70;99.90;;;;;;4954794;28;20093;-82
2021/12/17 05:00:22;;;;;;;20.63;7.50;;;7.70;99.90;;;;;;4938609;28;20451;-82
2021/12/17 05:02:54;;;;;;;19.73;7.65;;;7.70;99.90;;;;;;4953948;28;20047;-82
2021/12/17 05:05:22;;;;;;;16.50;7.72;;;8.20;99.90;;;;;;4939149;28;20050;-82
2021/12/17 05:07:54;;;;;;;19.20;7.68;;;8.50;99.90;;;;;;4938345;28;20054;-82
2021/12/17 05:10:31;;;;;;;20.90;7.90;;;8.00;99.90;;;;;;4954089;28;20086;-82
2021/12/17 05:18:30;;;;;;;20.05;8.13;;;7.80;99.90;;;;;;4952879;28;20138;-82
2021/12/17 05:21:03;;;;;;;21.67;9.00;;;7.70;99.90;;;;;;4938794;28;20062;-82
2021/12/17 05:23:33;;;;;;;22.23;9.63;;;7.70;99.90;;;;;;4954037;28;20046;-82
2021/12/17 05:26:01;;;;;;;21.17;8.60;;;7.70;99.90;;;;;;4938099;28;20380;-82
2021/12/17 05:28:27;;;;;;;21.85;8.85;;;7.60;99.90;;;;;;4954190;28;20056;-82
2021/12/17 05:30:55;;;;;;;23.85;9.77;;;7.70;99.90;;;;;;4954642;28;20043;-82
2021/12/17 05:33:23;;;;;;;22.33;9.75;;;7.70;99.90;;;;;;4952460;28;20562;-82
2021/12/17 05:35:49;;;;;;;22.65;9.63;;;8.30;99.90;;;;;;4937539;28;20050;-82
2021/12/17 05:38:16;;;;;;;21.08;9.40;;;7.70;99.90;;;;;;4940226;28;20129;-81
2021/12/17 05:40:42;;;;;;;24.65;10.32;;;7.70;99.90;;;;;;4953365;28;20061;-82
2021/12/17 05:43:09;;;;;;;26.08;10.77;;;7.70;99.90;;;;;;4956823;28;20089;-82
2021/12/17 05:48:09;;;;;;;23.63;10.32;;;8.50;99.90;;;;;;4972254;28;20391;-82
2021/12/17 05:50:38;;;;;;;29.15;12.18;;;7.70;99.90;;;;;;4956064;28;20042;-82
2021/12/17 05:53:05;;;;;;;32.28;12.60;;;7.90;99.90;;;;;;4956369;28;20042;-82
2021/12/17 05:55:32;;;;;;;28.42;11.90;;;8.30;99.90;;;;;;4972444;28;20046;-83
2021/12/17 05:57:58;;;;;;;29.15;11.70;;;7.70;99.90;;;;;;4992522;28;20053;-82
2021/12/17 06:00:24;;;;;;;27.55;11.70;;;7.70;99.90;;;;;;4975556;28;20038;-82
2021/12/17 06:02:51;;;;;;;25.50;12.50;;;7.80;99.90;;;;;;4990742;28;20077;-82
2021/12/17 06:05:17;;;;;;;35.30;11.65;;;7.90;99.90;;;;;;4992495;28;20085;-82
2021/12/17 06:07:43;;;;;;;25.25;10.85;;;7.60;99.90;;;;;;4974958;28;20135;-82
2021/12/17 06:10:11;;;;;;;27.85;12.48;;;7.70;99.90;;;;;;4992648;28;20485;-81
2021/12/17 06:12:38;;;;;;;32.25;12.38;;;7.60;99.90;;;;;;4975469;28;20041;-81
2021/12/17 06:15:05;;;;;;;29.75;13.13;;;7.60;99.90;;;;;;4971588;28;20107;-81
2021/12/17 06:17:32;;;;;;;38.42;14.15;;;7.60;99.90;;;;;;4955063;28;20046;-82
2021/12/17 06:19:58;;;;;;;31.27;12.15;;;7.90;99.90;;;;;;4972114;28;20045;-82
2021/12/17 06:22:23;;;;;;;30.27;12.68;;;7.60;99.90;;;;;;4971373;28;20054;-82
2021/12/17 06:24:49;;;;;;;31.38;11.68;;;8.20;99.90;;;;;;4971899;28;20054;-82
2021/12/17 06:27:16;;;;;;;31.63;12.05;;;7.80;99.90;;;;;;4971553;28;20125;-82
2021/12/17 06:29:43;;;;;;;32.08;13.02;;;7.70;99.90;;;;;;4972256;28;20050;-82
2021/12/17 06:32:09;;;;;;;34.15;12.50;;;7.50;99.90;;;;;;4971238;28;20046;-82
2021/12/17 06:34:36;;;;;;;32.72;13.20;;;8.10;99.90;;;;;;4971468;28;20145;-82
2021/12/17 06:37:02;;;;;;;30.80;12.98;;;7.50;99.90;;;;;;4971726;28;20129;-82
2021/12/17 06:39:28;;;;;;;37.42;13.18;;;7.40;99.90;;;;;;4971702;28;20042;-82
2021/12/17 06:41:54;;;;;;;39.22;13.90;;;7.40;99.90;;;;;;4970816;28;20100;-82
2021/12/17 06:44:23;;;;;;;38.25;12.98;;;7.40;99.90;;;;;;4971887;28;20038;-82
2021/12/17 06:47:01;;;;;;;40.47;12.50;;;7.40;99.90;;;;;;4955037;28;20709;-82
2021/12/17 06:55:02;;;;;;;33.55;13.02;;;7.40;99.90;;;;;;4971434;28;20050;-82
2021/12/17 06:58:10;;;;;;;32.60;13.13;;;7.30;99.90;;;;;;4954214;28;20137;-82
2021/12/17 07:00:35;;;;;;;33.72;12.98;;;7.90;99.90;;;;;;4971110;28;20372;-81
2021/12/17 07:11:01;;;;;;;41.85;13.07;;;7.80;99.90;;;;;;4987331;28;20057;-81
2021/12/17 07:21:54;;;;;;;39.03;13.77;;;7.50;99.90;;;;;;4990565;28;20077;-82
2021/12/17 07:24:49;;;;;;;46.15;15.55;;;7.50;99.90;;;;;;4973770;28;20068;-82
2021/12/17 07:30:48;;;;;;;52.58;16.10;;;7.60;99.90;;;;;;4991064;28;20128;-82
2021/12/17 07:35:44;;;;;;;44.85;14.88;;;7.50;99.90;;;;;;4990218;28;20053;-82
2021/12/17 07:40:59;;;;;;;41.35;15.45;;;8.20;99.90;;;;;;4971715;28;20080;-86
2021/12/17 07:43:29;;;;;;;46.13;15.73;;;8.00;99.90;;;;;;4971219;28;20042;-82
2021/12/17 07:45:56;;;;;;;41.38;14.45;;;7.80;99.90;;;;;;4976292;28;20133;-83
2021/12/17 07:48:23;;;;;;;42.53;14.20;;;7.60;99.90;;;;;;4958785;28;20042;-82
2021/12/17 07:50:49;;;;;;;41.50;14.88;;;7.70;99.90;;;;;;4963069;28;20049;-82
2021/12/17 07:53:15;;;;;;;42.42;15.63;;;7.70;99.90;;;;;;4980021;28;20037;-81
2021/12/17 07:55:41;;;;;;;43.25;16.13;;;8.00;99.90;;;;;;4988896;28;20402;-83
2021/12/17 07:58:06;;;;;;;38.67;14.93;;;8.20;99.90;;;;;;4974155;28;20043;-82
2021/12/17 08:00:32;;;;;;;47.92;16.13;;;7.90;99.90;;;;;;4953931;28;20089;-82
2021/12/17 08:02:58;;;;;;;40.47;15.73;;;7.80;99.90;;;;;;4977818;28;20038;-82
2021/12/17 08:05:24;;;;;;;34.35;14.35;;;7.80;99.90;;;;;;4962530;28;20038;-82
2021/12/17 08:07:49;;;;;;;36.30;14.75;;;7.80;99.90;;;;;;4985443;28;20045;-82
2021/12/17 08:10:15;;;;;;;40.03;15.23;;;7.80;99.90;;;;;;4972374;28;20048;-82
2021/12/17 08:12:41;;;;;;;44.45;15.95;;;8.20;99.90;;;;;;4962615;28;20044;-82
2021/12/17 08:15:10;;;;;;;39.13;14.95;;;7.80;99.90;;;;;;4965551;28;20078;-82
2021/12/17 08:18:02;;;;;;;43.97;15.48;;;7.90;99.90;;;;;;4964277;28;20044;-82
2021/12/17 08:26:18;;;;;;;39.05;15.52;;;8.00;99.90;;;;;;4983941;28;20410;-82
2021/12/17 08:29:06;;;;;;;39.60;13.82;;;7.90;99.90;;;;;;4981415;28;20050;-81
2021/12/17 08:31:33;;;;;;;38.55;15.00;;;8.00;99.90;;;;;;4989708;28;20056;-82
2021/12/17 08:34:02;;;;;;;38.85;14.25;;;8.20;99.90;;;;;;4983060;28;20049;-82
2021/12/17 08:36:28;;;;;;;36.25;14.07;;;8.00;99.90;;;;;;4983200;28;20053;-83
2021/12/17 08:38:54;;;;;;;37.97;15.35;;;8.20;99.90;;;;;;4957250;28;20161;-83
2021/12/17 08:41:21;;;;;;;36.65;14.50;;;8.50;99.90;;;;;;4991102;28;20133;-82
2021/12/17 08:43:47;;;;;;;40.78;15.93;;;8.30;99.90;;;;;;4984786;28;20053;-82
2021/12/17 08:46:13;;;;;;;36.67;15.55;;;8.00;99.90;;;;;;4966469;28;20508;-82
2021/12/17 08:48:39;;;;;;;39.30;16.30;;;8.30;99.90;;;;;;4974829;28;20122;-82
2021/12/17 08:51:08;;;;;;;41.88;15.95;;;9.10;99.90;;;;;;4982866;28;20133;-82
2021/12/17 08:53:34;;;;;;;38.95;14.90;;;8.10;99.90;;;;;;4976752;28;20100;-82
2021/12/17 08:56:01;;;;;;;40.28;14.73;;;8.10;99.90;;;;;;4976796;28;20065;-82
2021/12/17 08:58:26;;;;;;;38.78;14.73;;;8.10;99.90;;;;;;4970253;28;20145;-82
2021/12/17 09:00:52;;;;;;;41.05;15.82;;;8.10;99.90;;;;;;4966870;28;20565;-82
2021/12/17 09:03:18;;;;;;;37.05;14.93;;;8.10;99.90;;;;;;4972459;28;20050;-82
2021/12/17 09:05:46;;;;;;;39.25;15.00;;;8.10;99.90;;;;;;4990076;28;20046;-81
2021/12/17 09:08:13;;;;;;;32.65;14.15;;;8.10;99.90;;;;;;5006173;28;20050;-82
2021/12/17 09:10:40;;;;;;;33.38;13.93;;;8.80;99.90;;;;;;4957235;28;20038;-82
2021/12/17 09:13:07;;;;;;;32.58;14.00;;;8.70;99.90;;;;;;4973920;28;20553;-82
2021/12/17 09:15:33;;;;;;;30.83;13.93;;;8.20;99.90;;;;;;4973003;28;20387;-82
2021/12/17 09:17:59;;;;;;;33.03;13.63;;;9.00;99.90;;;;;;4972408;28;20596;-82
2021/12/17 09:20:25;;;;;;;29.25;12.20;;;8.20;99.90;;;;;;4957356;28;20133;-82
2021/12/17 09:22:52;;;;;;;28.75;11.70;;;8.50;99.90;;;;;;4972878;28;20513;-81
2021/12/17 09:25:18;;;;;;;35.42;12.93;;;8.20;99.90;;;;;;4972628;28;20367;-82
2021/12/17 09:27:44;;;;;;;28.85;11.60;;;8.80;99.90;;;;;;5005643;28;20049;-82
2021/12/17 09:30:15;;;;;;;25.58;11.63;;;8.30;99.90;;;;;;4972845;28;20050;-88
2021/12/17 09:32:41;;;;;;;32.28;11.60;;;8.30;99.90;;;;;;4989672;28;20045;-87
2021/12/17 09:35:09;;;;;;;25.92;10.90;;;8.40;99.90;;;;;;4984463;28;20110;-85
2021/12/17 09:37:36;;;;;;;34.55;12.23;;;8.40;99.90;;;;;;4985402;28;20077;-89
2021/12/17 09:40:06;;;;;;;28.42;10.88;;;8.50;99.90;;;;;;4983141;28;20038;-84
2021/12/17 09:42:33;;;;;;;30.23;10.25;;;8.50;99.90;;;;;;4988294;28;20049;-80
2021/12/17 09:44:58;;;;;;;27.80;11.00;;;8.50;99.90;;;;;;4990683;28;20112;-84
2021/12/17 09:47:24;;;;;;;27.17;11.57;;;8.50;99.90;;;;;;4963530;28;20557;-83
2021/12/17 09:49:55;;;;;;;30.83;10.90;;;8.50;99.90;;;;;;4965096;28;20104;-83
2021/12/17 09:52:21;;;;;;;25.50;10.63;;;8.50;99.90;;;;;;4965385;28;20100;-82
2021/12/17 09:54:47;;;;;;;30.25;11.18;;;9.30;99.90;;;;;;5005536;28;20454;-82
2021/12/17 09:57:13;;;;;;;28.23;11.05;;;8.60;99.90;;;;;;4964235;28;20525;-82
2021/12/17 09:59:39;;;;;;;25.70;10.90;;;8.60;99.90;;;;;;4981180;28;20040;-82
2021/12/17 10:02:06;;;;;;;25.75;10.70;;;9.50;99.90;;;;;;4963488;28;20509;-82
2021/12/17 10:04:32;;;;;;;26.60;10.30;;;8.60;99.90;;;;;;4980781;28;20045;-82
2021/12/17 10:07:23;;;;;;;29.90;10.90;;;8.60;99.90;;;;;;4964277;28;20046;-82
2021/12/17 10:09:51;;;;;;;34.13;11.65;;;8.60;99.90;;;;;;4966399;28;20042;-86
2021/12/17 10:12:27;;;;;;;24.27;11.25;;;8.60;99.90;;;;;;4964394;28;20088;-86
2021/12/17 10:15:14;;;;;;;29.35;11.05;;;8.60;99.90;;;;;;4964947;28;20038;-86
2021/12/17 10:18:01;;;;;;;30.30;11.77;;;8.70;99.90;;;;;;4964129;28;20055;-87
2021/12/17 10:20:31;;;;;;;26.15;10.65;;;9.80;99.90;;;;;;4966609;28;20512;-87
2021/12/17 10:23:00;;;;;;;27.23;10.95;;;8.70;99.90;;;;;;4979991;28;20796;-88
2021/12/17 10:25:28;;;;;;;30.85;10.60;;;8.70;99.90;;;;;;4981568;28;20490;-83
2021/12/17 10:27:59;;;;;;;28.15;10.52;;;8.70;99.90;;;;;;4980514;28;20041;-86
2021/12/17 10:30:26;;;;;;;21.98;9.55;;;8.80;99.90;;;;;;4965825;28;20128;-84
2021/12/17 10:32:55;;;;;;;26.88;10.50;;;8.80;99.90;;;;;;4979190;28;20042;-85
2021/12/17 10:35:27;;;;;;;27.10;11.02;;;8.80;99.90;;;;;;4962877;28;20038;-82
2021/12/17 10:38:00;;;;;;;30.25;11.82;;;8.80;99.90;;;;;;4971852;28;20034;-82
2021/12/17 10:40:33;;;;;;;29.80;11.52;;;8.90;99.90;;;;;;4961224;28;20517;-82
2021/12/17 10:43:05;;;;;;;23.48;10.40;;;8.90;99.90;;;;;;4972837;28;20092;-82
2021/12/17 10:45:35;;;;;;;26.67;11.07;;;8.90;99.90;;;;;;4976416;28;20583;-82
2021/12/17 10:48:24;;;;;;;29.33;10.93;;;9.50;99.90;;;;;;4978746;28;20037;-82
2021/12/17 10:51:00;;;;;;;29.45;10.65;;;8.90;99.90;;;;;;4981039;28;20514;-82
2021/12/17 10:53:26;;;;;;;23.58;10.75;;;8.90;99.90;;;;;;4964061;28;20379;-82
2021/12/17 10:55:53;;;;;;;16.08;9.88;;;8.90;99.90;;;;;;4962111;28;20060;-83
2021/12/17 10:58:20;;;;;;;27.75;9.80;;;9.00;99.90;;;;;;4974164;28;20080;-83
2021/12/17 11:00:55;;;;;;;20.75;8.70;;;9.00;99.90;;;;;;4955873;28;20108;-82
2021/12/17 11:03:22;;;;;;;18.58;8.65;;;9.00;99.90;;;;;;4983438;28;20126;-82
2021/12/17 11:05:48;;;;;;;17.35;7.65;;;9.00;99.90;;;;;;4961470;28;20104;-82
2021/12/17 11:08:28;;;;;;;14.73;6.43;;;9.00;99.90;;;;;;4955960;28;20529;-82
2021/12/17 11:10:58;;;;;;;15.52;7.13;;;9.10;99.90;;;;;;4955606;28;20069;-82
2021/12/17 11:13:25;;;;;;;20.92;7.40;;;9.10;99.90;;;;;;4972024;28;20073;-82
2021/12/17 11:15:52;;;;;;;14.48;6.72;;;9.60;99.90;;;;;;4957552;28;20054;-82
2021/12/17 11:18:18;;;;;;;12.10;6.75;;;9.10;99.90;;;;;;4968651;28;20041;-82
2021/12/17 11:20:44;;;;;;;13.00;5.72;;;9.00;99.90;;;;;;4964034;28;20379;-83
2021/12/17 11:23:14;;;;;;;16.25;7.10;;;9.10;99.90;;;;;;4958611;28;20132;-82
2021/12/17 11:25:43;;;;;;;10.60;5.32;;;9.10;99.90;;;;;;4957915;28;20125;-82
2021/12/17 11:28:10;;;;;;;13.77;5.90;;;9.90;99.90;;;;;;4963389;28;20413;-82
2021/12/17 11:30:39;;;;;;;9.27;5.30;;;9.90;99.90;;;;;;4969044;28;20387;-82
2021/12/17 11:33:05;;;;;;;10.38;5.28;;;9.70;99.90;;;;;;4974278;28;20148;-86
2021/12/17 11:35:34;;;;;;;11.50;5.00;;;9.20;99.90;;;;;;4990978;28;20143;-89
2021/12/17 11:38:11;;;;;;;17.85;5.22;;;9.20;99.90;;;;;;4962304;28;20040;-89
2021/12/17 11:40:58;;;;;;;11.73;5.05;;;9.30;99.90;;;;;;4940909;28;20409;-84
2021/12/17 11:43:36;;;;;;;7.85;4.78;;;9.30;99.90;;;;;;4961946;28;20116;-84
2021/12/17 11:46:06;;;;;;;7.00;4.32;;;9.20;99.90;;;;;;4979605;28;20117;-84
2021/12/17 11:48:34;;;;;;;9.38;4.38;;;9.20;99.90;;;;;;4984473;28;20133;-84
2021/12/17 11:51:05;;;;;;;9.98;4.55;;;9.20;99.90;;;;;;4968887;28;20041;-84
2021/12/17 11:53:32;;;;;;;9.80;3.95;;;9.20;99.90;;;;;;4968642;28;20046;-84
2021/12/17 11:56:01;;;;;;;8.75;3.97;;;9.70;99.90;;;;;;4988465;28;20054;-84
2021/12/17 11:58:51;;;;;;;7.88;3.80;;;9.30;99.90;;;;;;4963136;28;20494;-84
2021/12/17 12:01:47;;;;;;;8.55;3.78;;;9.20;99.90;;;;;;4969808;28;20046;-85
2021/12/17 12:04:32;;;;;;;9.93;3.90;;;9.20;99.90;;;;;;4950542;28;20050;-85
2021/12/17 12:07:01;;;;;;;8.07;4.38;;;9.20;99.90;;;;;;4963745;28;20113;-84
2021/12/17 12:09:57;;;;;;;10.00;4.53;;;9.10;99.90;;;;;;4948747;28;20078;-85
2021/12/17 12:12:28;;;;;;;11.82;4.40;;;9.20;99.90;;;;;;4960161;28;20051;-85
2021/12/17 12:14:55;;;;;;;9.02;4.45;;;9.20;99.90;;;;;;4961633;28;20050;-84
2021/12/17 12:18:01;;;;;;;10.38;4.30;;;9.20;99.90;;;;;;4970090;28;20051;-85
2021/12/17 12:20:51;;;;;;;10.98;4.85;;;9.10;99.90;;;;;;4960054;28;20181;-84
2021/12/17 12:23:33;;;;;;;11.48;4.60;;;9.10;99.90;;;;;;4971970;28;20035;-85
2021/12/17 12:26:03;;;;;;;11.90;5.10;;;9.20;99.90;;;;;;4978297;28;20038;-84
2021/12/17 12:28:48;;;;;;;10.52;4.80;;;9.40;99.90;;;;;;4947385;28;20046;-85
2021/12/17 12:31:18;;;;;;;8.98;5.18;;;9.20;99.90;;;;;;4955252;28;20047;-84
2021/12/17 12:34:02;;;;;;;10.57;5.20;;;9.10;99.90;;;;;;4943530;28;20446;-84
2021/12/17 12:36:54;;;;;;;11.80;4.80;;;9.20;99.90;;;;;;4963863;28;20042;-85
2021/12/17 12:39:30;;;;;;;9.95;5.18;;;9.20;99.90;;;;;;4957950;28;20047;-85
2021/12/17 12:41:59;;;;;;;9.95;5.10;;;9.20;99.90;;;;;;4957865;28;20045;-85
2021/12/17 12:44:44;;;;;;;11.13;4.80;;;9.20;99.90;;;;;;4958171;28;20061;-85
2021/12/17 12:47:13;;;;;;;10.43;5.40;;;9.20;99.90;;;;;;4957324;28;20078;-84
2021/12/17 12:49:56;;;;;;;7.20;4.22;;;9.20;99.90;;;;;;4958711;28;20059;-85
2021/12/17 12:52:27;;;;;;;8.70;5.47;;;9.20;99.90;;;;;;4946891;28;20043;-84
2021/12/17 12:54:58;;;;;;;8.93;5.35;;;9.20;99.90;;;;;;4954837;28;20471;-84
2021/12/17 12:57:35;;;;;;;9.63;5.20;;;9.70;99.90;;;;;;4954626;28;20054;-84
2021/12/17 13:00:12;;;;;;;9.93;5.70;;;9.20;99.90;;;;;;4972155;28;20043;-85
2021/12/17 13:02:39;;;;;;;8.70;5.53;;;9.20;99.90;;;;;;4986258;28;20482;-83
2021/12/17 13:05:06;;;;;;;14.10;5.50;;;9.20;99.90;;;;;;4965408;28;20043;-85
2021/12/17 13:07:39;;;;;;;8.70;5.45;;;9.20;99.90;;;;;;4945255;28;20478;-84
2021/12/17 13:10:08;;;;;;;10.27;5.50;;;9.20;99.90;;;;;;4960264;28;20046;-84
2021/12/17 13:12:35;;;;;;;9.48;5.97;;;9.20;99.90;;;;;;4986456;28;20050;-87
2021/12/17 13:15:32;;;;;;;11.30;5.88;;;9.20;99.90;;;;;;4958352;28;20451;-84
2021/12/17 13:23:21;;;;;;;10.50;4.95;;;9.20;99.90;;;;;;4954588;28;20442;-87
2021/12/17 13:26:09;;;;;;;9.73;4.28;;;9.60;99.90;;;;;;4987473;28;20050;-87
2021/12/17 13:28:46;;;;;;;7.40;5.03;;;9.20;99.90;;;;;;4938729;28;20438;-87
2021/12/17 13:31:12;;;;;;;6.88;4.75;;;9.20;99.90;;;;;;4970252;28;20051;-88
2021/12/17 13:33:38;;;;;;;8.07;5.00;;;9.20;99.90;;;;;;4937949;28;20046;-85
2021/12/17 13:36:13;;;;;;;9.40;5.18;;;9.20;99.90;;;;;;4940236;28;20042;-86
2021/12/17 13:38:41;;;;;;;8.50;5.13;;;9.20;99.90;;;;;;4942995;28;20101;-85
2021/12/17 13:41:09;;;;;;;11.73;5.53;;;9.20;99.90;;;;;;4972884;28;20046;-85
2021/12/17 13:43:41;;;;;;;11.23;4.05;;;9.20;99.90;;;;;;4956468;28;20058;-86
2021/12/17 13:46:07;;;;;;;6.78;4.95;;;9.20;99.90;;;;;;4957065;28;20060;-85
2021/12/17 13:48:34;;;;;;;8.10;5.35;;;9.20;99.90;;;;;;4941593;28;20046;-85
2021/12/17 13:51:00;;;;;;;9.18;4.97;;;9.20;99.90;;;;;;4953051;28;20042;-85
2021/12/17 13:53:26;;;;;;;7.68;3.85;;;9.20;99.90;;;;;;4939424;28;20050;-85
2021/12/17 13:55:52;;;;;;;6.60;4.35;;;9.20;99.90;;;;;;4964633;28;20484;-85
2021/12/17 13:58:23;;;;;;;8.30;4.57;;;9.20;99.90;;;;;;5006292;28;20101;-84
2021/12/17 14:00:53;;;;;;;6.63;4.38;;;9.20;99.90;;;;;;4974730;28;20085;-84
2021/12/17 14:03:26;;;;;;;8.63;4.50;;;9.20;99.90;;;;;;4973539;28;20042;-84
2021/12/17 14:06:08;;;;;;;8.65;4.70;;;9.30;99.90;;;;;;4989431;28;20136;-84
2021/12/17 14:08:38;;;;;;;9.65;5.18;;;9.20;99.90;;;;;;4979408;28;20039;-84
2021/12/17 14:11:16;;;;;;;7.30;4.53;;;9.40;99.90;;;;;;4962325;28;20038;-85
2021/12/17 14:13:42;;;;;;;10.35;4.60;;;9.20;99.90;;;;;;4963074;28;20097;-84
2021/12/17 14:16:08;;;;;;;8.65;5.13;;;9.10;99.90;;;;;;4980972;28;20062;-84
2021/12/17 14:18:34;;;;;;;9.20;5.03;;;9.20;99.90;;;;;;4956618;28;20049;-84
2021/12/17 14:21:03;;;;;;;15.52;5.57;;;9.10;99.90;;;;;;4960106;28;20536;-85
2021/12/17 14:23:31;;;;;;;10.95;5.50;;;9.10;99.90;;;;;;4975188;28;20050;-84
2021/12/17 14:25:59;;;;;;;9.73;5.50;;;9.10;99.90;;;;;;4964632;28;20121;-85
2021/12/17 14:28:30;;;;;;;8.57;5.47;;;9.10;99.90;;;;;;4964088;28;20039;-84
2021/12/17 14:31:01;;;;;;;10.13;5.53;;;9.10;99.90;;;;;;4966742;28;20095;-84
2021/12/17 14:33:34;;;;;;;9.30;5.70;;;9.10;99.90;;;;;;4989113;28;20089;-84
2021/12/17 14:36:06;;;;;;;9.05;5.95;;;9.10;99.90;;;;;;4965353;28;20120;-84
2021/12/17 14:38:42;;;;;;;14.07;6.00;;;9.10;99.90;;;;;;4948203;28;20158;-84
2021/12/17 14:41:14;;;;;;;8.38;5.72;;;9.10;99.90;;;;;;4963949;28;20042;-84
2021/12/17 14:43:54;;;;;;;9.23;6.40;;;9.10;99.90;;;;;;5005716;28;20394;-85
2021/12/17 14:46:24;;;;;;;14.90;6.93;;;9.10;99.90;;;;;;4991586;28;20053;-84
2021/12/17 14:49:21;;;;;;;16.15;6.22;;;9.60;99.90;;;;;;4990171;28;20108;-84
2021/12/17 15:00:26;;;;;;;11.40;6.47;;;9.50;99.90;;;;;;4992185;28;20046;-86
2021/12/17 15:03:03;;;;;;;10.82;6.75;;;9.00;99.90;;;;;;4991523;28;20057;-90
2021/12/17 15:05:31;;;;;;;11.50;6.78;;;9.00;99.90;;;;;;4971930;28;20053;-85
2021/12/17 15:08:01;;;;;;;15.07;7.38;;;9.00;99.90;;;;;;4955533;28;20046;-85
2021/12/17 15:10:29;;;;;;;15.02;7.93;;;9.00;99.90;;;;;;4966310;28;20406;-88
2021/12/17 15:12:59;;;;;;;13.30;7.35;;;9.60;99.90;;;;;;4960884;28;20489;-88
2021/12/17 15:15:37;;;;;;;13.15;7.70;;;9.00;99.90;;;;;;4958257;28;20777;-86
2021/12/17 15:18:19;;;;;;;11.68;8.07;;;9.00;99.90;;;;;;4975737;28;20053;-86
2021/12/17 15:20:48;;;;;;;17.50;8.13;;;8.90;99.90;;;;;;4979428;28;20062;-85
2021/12/17 15:23:15;;;;;;;14.45;7.60;;;9.00;99.90;;;;;;4989040;28;20049;-85
2021/12/17 15:25:41;;;;;;;11.30;7.45;;;8.90;99.90;;;;;;4966577;28;20049;-85
2021/12/17 15:28:11;;;;;;;11.95;7.05;;;9.00;99.90;;;;;;4981771;28;20046;-85